Aviation Digital Data Service (ADDS)

Output produced by METARs form (1344 UTC 01 September 2014)
found at http://aviationweather.gov/adds/metars/
 
KACK 011138Z 0112/0212 24011KT 3SM BR BKN005 OVC035 
     FM011400 23008KT 5SM BR OVC035 
     FM011600 23009KT P6SM VCTS OVC010CB 
     FM011700 23009KT P6SM VCTS OVC003CB 
     FM020000 22008KT 3SM BR BKN003 
     FM020600 23007KT 1/4SM FG OVC003